Terminal Aerodrome Forecast
Issued by NWS Newport/Morehead City, NC

Home | Current Version | Previous Version | Graphics & Text | Print | Product List | Glossary On
Versions: 1 2 3 4 5 6 7 8 9 10 11 12
000
FTUS42 KMHX 051120
TAFEWN
TAF
KEWN 051120Z 0512/0612 00000KT P6SM SKC
     FM051400 20007KT P6SM SCT070
     FM060000 18005KT P6SM SKC=

USA.gov is the U.S. government's official web portal to all federal, state and local government web resources and services.